Time;durP1;ratioP1;P1;durP2;ratioP2;P2;SDS_P1;SDS_P2;PMS_P1;PMS_P2;Temp;Humidity;BMP_temperature;BMP_pressure;BME280_temperature;BME280_humidity;BME280_pressure;Samples;Min_cycle;Max_cycle;Signal;HPM_P1;HPM_P2
2023/03/01 00:01:00;;;;;;;2.83;0.82;;;;;;;;;;5018748;28;20075;-79
2023/03/01 00:03:44;;;;;;;1.90;0.65;;;;;;;;;;5041729;28;20059;-81
2023/03/01 00:06:10;;;;;;;2.78;0.93;;;;;;;;;;5035359;28;20109;-79
2023/03/01 00:08:35;;;;;;;1.25;0.70;;;;;;;;;;5053044;28;20025;-81
2023/03/01 00:11:05;;;;;;;2.55;0.80;;;;;;;;;;5035026;28;20068;-79
2023/03/01 00:13:31;;;;;;;2.38;0.80;;;;;;;;;;5035965;28;20035;-80
2023/03/01 00:15:56;;;;;;;1.95;0.80;;;;;;;;;;5052796;28;20037;-81
2023/03/01 00:18:22;;;;;;;2.30;0.75;;;;;;;;;;5053133;28;20094;-79
2023/03/01 00:20:54;;;;;;;1.73;0.65;;;;;;;;;;5052752;28;20041;-81
2023/03/01 00:23:19;;;;;;;1.98;0.70;;;;;;;;;;5035570;28;20071;-80
2023/03/01 00:25:45;;;;;;;4.28;1.10;;;;;;;;;;5053205;28;20487;-80
2023/03/01 00:28:10;;;;;;;2.00;0.82;;;;;;;;;;5034857;28;20040;-81
2023/03/01 00:30:35;;;;;;;2.90;0.73;;;;;;;;;;5052166;28;20111;-80
2023/03/01 00:33:01;;;;;;;1.60;0.70;;;;;;;;;;5017746;28;20045;-80
2023/03/01 00:35:26;;;;;;;1.25;0.70;;;;;;;;;;5034298;28;20063;-80
2023/03/01 00:37:57;;;;;;;2.78;0.70;;;;;;;;;;5034712;28;20057;-80
2023/03/01 00:40:29;;;;;;;1.95;0.73;;;;;;;;;;5034705;28;20492;-80
2023/03/01 00:42:54;;;;;;;1.98;0.65;;;;;;;;;;5034903;28;20033;-80
2023/03/01 00:45:20;;;;;;;2.20;0.90;;;;;;;;;;5034583;28;20135;-81
2023/03/01 00:47:47;;;;;;;2.47;0.80;;;;;;;;;;5018269;28;20124;-81
2023/03/01 00:50:12;;;;;;;;;;;;;;;;;;5034957;28;20025;-80
2023/03/01 00:52:37;;;;;;;1.02;0.70;;;;;;;;;;5052384;28;20122;-80
2023/03/01 00:55:03;;;;;;;4.18;0.77;;;;;;;;;;5052088;28;20126;-80
2023/03/01 00:57:29;;;;;;;1.65;0.80;;;;;;;;;;5034224;28;20071;-80
2023/03/01 00:59:54;;;;;;;2.13;0.70;;;;;;;;;;5052028;28;20036;-80
2023/03/01 01:02:20;;;;;;;2.45;0.98;;;;;;;;;;5052386;28;20048;-80
2023/03/01 01:04:45;;;;;;;2.17;0.90;;;;;;;;;;5034399;28;20056;-80
2023/03/01 01:07:11;;;;;;;5.22;0.80;;;;;;;;;;5017587;28;20045;-80
2023/03/01 01:09:37;;;;;;;1.27;0.70;;;;;;;;;;5016399;28;20098;-80
2023/03/01 01:12:03;;;;;;;;;;;;;;;;;;5034305;28;20090;-80
2023/03/01 01:14:28;;;;;;;2.45;1.05;;;;;;;;;;5051955;28;19917;-80
2023/03/01 01:16:54;;;;;;;1.75;0.80;;;;;;;;;;5017213;28;20496;-80
2023/03/01 01:19:19;;;;;;;3.40;0.70;;;;;;;;;;5033890;28;20035;-80
2023/03/01 01:21:45;;;;;;;2.42;0.80;;;;;;;;;;5017648;28;20045;-80
2023/03/01 01:24:11;;;;;;;2.47;1.00;;;;;;;;;;5034535;28;20032;-81
2023/03/01 01:26:36;;;;;;;2.70;0.80;;;;;;;;;;5051597;28;20035;-80
2023/03/01 01:29:02;;;;;;;1.88;0.80;;;;;;;;;;5033716;28;20102;-80
2023/03/01 01:31:28;;;;;;;2.75;0.80;;;;;;;;;;5033700;28;20028;-80
2023/03/01 01:33:54;;;;;;;4.15;0.88;;;;;;;;;;5017034;28;20044;-80
2023/03/01 01:36:19;;;;;;;1.70;0.70;;;;;;;;;;5051793;28;20064;-80
2023/03/01 01:38:45;;;;;;;2.58;0.70;;;;;;;;;;5017125;28;20029;-80
2023/03/01 01:41:13;;;;;;;2.22;0.80;;;;;;;;;;5051918;28;20040;-80
2023/03/01 01:43:40;;;;;;;1.25;0.70;;;;;;;;;;5050913;28;20032;-80
2023/03/01 01:46:13;;;;;;;1.52;0.80;;;;;;;;;;5017381;28;20037;-80
2023/03/01 01:48:42;;;;;;;2.50;1.10;;;;;;;;;;5033329;28;20476;-80
2023/03/01 01:51:09;;;;;;;1.15;0.70;;;;;;;;;;5033711;28;20476;-80
2023/03/01 01:53:36;;;;;;;2.03;1.00;;;;;;;;;;5039351;28;20044;-80
2023/03/01 01:56:01;;;;;;;2.53;0.73;;;;;;;;;;5070948;28;20041;-80
2023/03/01 01:58:27;;;;;;;1.98;0.80;;;;;;;;;;5069952;28;20035;-80
2023/03/01 02:00:53;;;;;;;;;;;;;;;;;;5053279;28;20036;-80
2023/03/01 02:03:32;;;;;;;2.75;0.95;;;;;;;;;;5051839;28;19908;-80
2023/03/01 02:06:00;;;;;;;2.38;0.82;;;;;;;;;;5052596;28;20135;-80
2023/03/01 02:08:26;;;;;;;2.28;0.80;;;;;;;;;;5035352;28;20123;-80
2023/03/01 02:10:52;;;;;;;3.83;1.50;;;;;;;;;;5047292;28;20464;-80
2023/03/01 02:13:17;;;;;;;3.53;1.20;;;;;;;;;;5070709;28;20529;-80
2023/03/01 02:15:46;;;;;;;2.65;1.00;;;;;;;;;;5070811;28;20076;-80
2023/03/01 02:18:13;;;;;;;3.67;0.80;;;;;;;;;;5058151;28;20470;-80
2023/03/01 02:20:40;;;;;;;2.95;0.90;;;;;;;;;;5027057;28;20144;-80
2023/03/01 02:23:06;;;;;;;2.20;0.80;;;;;;;;;;5031153;28;20367;-80
2023/03/01 02:25:36;;;;;;;3.75;1.00;;;;;;;;;;5044842;28;20068;-80
2023/03/01 02:28:05;;;;;;;3.60;0.88;;;;;;;;;;5015540;28;20044;-80
2023/03/01 02:30:31;;;;;;;2.95;0.80;;;;;;;;;;5062086;28;20025;-80
2023/03/01 02:33:02;;;;;;;1.60;0.82;;;;;;;;;;5040417;28;20028;-80
2023/03/01 02:35:29;;;;;;;4.22;0.90;;;;;;;;;;5009788;28;20421;-80
2023/03/01 02:37:56;;;;;;;2.90;1.00;;;;;;;;;;5025008;28;20522;-78
2023/03/01 02:40:22;;;;;;;4.25;0.95;;;;;;;;;;5061797;28;20086;-80
2023/03/01 02:42:49;;;;;;;2.38;1.00;;;;;;;;;;5032186;28;20387;-78
2023/03/01 02:45:15;;;;;;;2.30;0.70;;;;;;;;;;5027982;28;20460;-79
2023/03/01 02:47:41;;;;;;;2.65;0.90;;;;;;;;;;5066663;28;20055;-78
2023/03/01 02:50:19;;;;;;;2.65;0.70;;;;;;;;;;5045104;28;20033;-79
2023/03/01 02:52:45;;;;;;;2.95;0.80;;;;;;;;;;5047770;28;20051;-79
2023/03/01 02:55:14;;;;;;;4.07;1.10;;;;;;;;;;5034100;28;20459;-79
2023/03/01 02:57:41;;;;;;;1.88;0.77;;;;;;;;;;5036927;28;20037;-79
2023/03/01 03:00:08;;;;;;;2.05;0.80;;;;;;;;;;5036342;28;20083;-79
2023/03/01 03:02:38;;;;;;;1.25;0.70;;;;;;;;;;5054039;28;20484;-78
2023/03/01 03:05:16;;;;;;;2.15;0.70;;;;;;;;;;5022436;28;20039;-79
2023/03/01 03:07:43;;;;;;;1.20;0.60;;;;;;;;;;5036194;28;20048;-79
2023/03/01 03:10:11;;;;;;;2.42;0.90;;;;;;;;;;5037027;28;20029;-79
2023/03/01 03:12:36;;;;;;;1.80;0.82;;;;;;;;;;5036461;28;20029;-78
2023/03/01 03:15:08;;;;;;;2.38;0.70;;;;;;;;;;5036211;28;20032;-79
2023/03/01 03:17:37;;;;;;;3.50;1.25;;;;;;;;;;5035757;28;20388;-78
2023/03/01 03:20:03;;;;;;;4.05;1.10;;;;;;;;;;5036040;28;20025;-78
2023/03/01 03:22:29;;;;;;;;;;;;;;;;;;5036989;28;20119;-78
2023/03/01 03:24:54;;;;;;;3.67;0.80;;;;;;;;;;5036138;28;20003;-80
2023/03/01 03:27:20;;;;;;;3.72;1.08;;;;;;;;;;5053840;28;20384;-80
2023/03/01 03:29:45;;;;;;;4.20;1.10;;;;;;;;;;5053387;28;20373;-80
2023/03/01 03:32:10;;;;;;;2.25;0.88;;;;;;;;;;5035385;28;20029;-80
2023/03/01 03:34:36;;;;;;;4.45;1.00;;;;;;;;;;5054009;28;20029;-79
2023/03/01 03:37:01;;;;;;;3.63;1.15;;;;;;;;;;5036059;28;20029;-79
2023/03/01 03:39:27;;;;;;;5.22;0.80;;;;;;;;;;5053931;28;20032;-79
2023/03/01 03:41:53;;;;;;;1.92;0.93;;;;;;;;;;5035603;28;20106;-79
2023/03/01 03:44:19;;;;;;;5.03;1.13;;;;;;;;;;5035984;28;20068;-79
2023/03/01 03:46:44;;;;;;;6.80;1.25;;;;;;;;;;5052722;28;20033;-79
2023/03/01 03:49:09;;;;;;;3.45;1.10;;;;;;;;;;5053659;28;20033;-78
2023/03/01 03:51:35;;;;;;;2.60;0.95;;;;;;;;;;5052854;28;20032;-79
2023/03/01 03:54:00;;;;;;;3.45;1.20;;;;;;;;;;5043326;28;20049;-78
2023/03/01 03:56:26;;;;;;;3.42;1.30;;;;;;;;;;5051564;28;20116;-81
2023/03/01 03:58:52;;;;;;;2.20;1.08;;;;;;;;;;5053341;28;20044;-80
2023/03/01 04:01:17;;;;;;;4.20;1.00;;;;;;;;;;5051820;28;20506;-80
2023/03/01 04:03:46;;;;;;;3.13;1.10;;;;;;;;;;5053509;28;20133;-80
2023/03/01 04:06:12;;;;;;;1.85;1.00;;;;;;;;;;5051869;28;20033;-79
2023/03/01 04:08:37;;;;;;;2.70;1.08;;;;;;;;;;5051621;28;20505;-80
2023/03/01 04:11:25;;;;;;;4.35;1.05;;;;;;;;;;5052349;28;20174;-79
2023/03/01 04:13:49;;;;;;;3.63;1.35;;;;;;;;;;5052909;28;20040;-80
2023/03/01 04:16:14;;;;;;;4.72;1.30;;;;;;;;;;5047042;28;20017;-80
2023/03/01 04:18:40;;;;;;;2.78;1.10;;;;;;;;;;5051988;28;20203;-81
2023/03/01 04:21:05;;;;;;;5.25;1.30;;;;;;;;;;5051567;28;20044;-80
2023/03/01 04:23:31;;;;;;;2.80;1.10;;;;;;;;;;5053382;28;20033;-80
2023/03/01 04:25:57;;;;;;;2.28;1.10;;;;;;;;;;5052555;28;20033;-79
2023/03/01 04:28:24;;;;;;;2.85;1.48;;;;;;;;;;5051349;28;20045;-80
2023/03/01 04:30:49;;;;;;;3.08;1.05;;;;;;;;;;5049438;28;20032;-80
2023/03/01 04:33:40;;;;;;;5.80;1.38;;;;;;;;;;5046335;28;20070;-80
2023/03/01 04:36:08;;;;;;;4.88;1.70;;;;;;;;;;5040433;28;20033;-78
2023/03/01 04:38:34;;;;;;;8.35;3.28;;;;;;;;;;5034766;28;20033;-78
2023/03/01 04:40:59;;;;;;;5.15;1.70;;;;;;;;;;5035934;28;20034;-78
2023/03/01 04:43:28;;;;;;;4.00;1.65;;;;;;;;;;5036570;28;20029;-78
2023/03/01 04:45:53;;;;;;;4.25;1.55;;;;;;;;;;5026805;28;20029;-79
2023/03/01 04:48:19;;;;;;;2.50;1.20;;;;;;;;;;5047363;28;20345;-78
2023/03/01 04:50:44;;;;;;;3.88;1.60;;;;;;;;;;5033355;28;20522;-79
2023/03/01 04:53:09;;;;;;;3.20;1.45;;;;;;;;;;5050993;28;20051;-80
2023/03/01 04:55:35;;;;;;;5.65;1.70;;;;;;;;;;5048184;28;20064;-79
2023/03/01 04:58:01;;;;;;;2.00;1.10;;;;;;;;;;5051735;28;20098;-80
2023/03/01 05:00:26;;;;;;;1.77;0.90;;;;;;;;;;5023452;28;20033;-79
2023/03/01 05:02:55;;;;;;;1.85;1.08;;;;;;;;;;5045309;28;20025;-80
2023/03/01 05:05:25;;;;;;;5.88;1.70;;;;;;;;;;5058624;28;20033;-80
2023/03/01 05:07:51;;;;;;;4.20;1.27;;;;;;;;;;5057061;28;20032;-80
2023/03/01 05:10:17;;;;;;;3.35;1.40;;;;;;;;;;5021123;28;20146;-80
2023/03/01 05:12:42;;;;;;;3.60;1.10;;;;;;;;;;5047227;28;20112;-79
2023/03/01 05:15:08;;;;;;;4.38;1.42;;;;;;;;;;5040691;28;20025;-78
2023/03/01 05:17:34;;;;;;;2.10;1.08;;;;;;;;;;5036182;28;20039;-80
2023/03/01 05:19:59;;;;;;;4.20;1.27;;;;;;;;;;5064323;28;20041;-80
2023/03/01 05:22:25;;;;;;;5.05;1.63;;;;;;;;;;5065924;28;20036;-80
2023/03/01 05:24:50;;;;;;;4.38;1.30;;;;;;;;;;5072002;28;20036;-80
2023/03/01 05:27:15;;;;;;;3.75;1.30;;;;;;;;;;5045765;28;20036;-80
2023/03/01 05:29:41;;;;;;;4.55;1.38;;;;;;;;;;5071229;28;20119;-80
2023/03/01 05:32:08;;;;;;;5.25;1.20;;;;;;;;;;5052778;28;20025;-81
2023/03/01 05:34:35;;;;;;;1.55;0.93;;;;;;;;;;5071378;28;20033;-81
2023/03/01 05:37:00;;;;;;;3.00;1.10;;;;;;;;;;5023185;28;20037;-81
2023/03/01 05:39:27;;;;;;;2.15;0.95;;;;;;;;;;5070926;28;20036;-81
2023/03/01 05:41:55;;;;;;;4.03;1.20;;;;;;;;;;5070322;28;20033;-80
2023/03/01 05:44:21;;;;;;;3.65;1.73;;;;;;;;;;5053396;28;20119;-81
2023/03/01 05:46:46;;;;;;;3.28;1.50;;;;;;;;;;5039557;28;20570;-81
2023/03/01 05:49:37;;;;;;;2.38;1.02;;;;;;;;;;5032080;28;20040;-81
2023/03/01 05:52:02;;;;;;;3.67;1.17;;;;;;;;;;5056222;28;20032;-79
2023/03/01 05:54:28;;;;;;;3.08;1.10;;;;;;;;;;5052256;28;20491;-81
2023/03/01 05:56:53;;;;;;;3.35;1.15;;;;;;;;;;5067378;28;20036;-81
2023/03/01 05:59:19;;;;;;;2.15;1.00;;;;;;;;;;5044639;28;20123;-80
2023/03/01 06:01:44;;;;;;;1.85;1.15;;;;;;;;;;5057058;28;20058;-81
2023/03/01 06:04:10;;;;;;;3.88;1.20;;;;;;;;;;5070691;28;20032;-80
2023/03/01 06:06:37;;;;;;;3.92;1.20;;;;;;;;;;5051064;28;20056;-80
2023/03/01 06:09:03;;;;;;;3.13;1.10;;;;;;;;;;5070057;28;20040;-79
2023/03/01 06:11:28;;;;;;;2.75;1.20;;;;;;;;;;5051025;28;20023;-81
2023/03/01 06:13:54;;;;;;;5.47;1.20;;;;;;;;;;5070182;28;20036;-80
2023/03/01 06:16:19;;;;;;;2.67;1.08;;;;;;;;;;5065201;28;20563;-81
2023/03/01 06:18:45;;;;;;;3.90;0.98;;;;;;;;;;5033960;28;20064;-81
2023/03/01 06:21:10;;;;;;;5.43;1.20;;;;;;;;;;5068341;28;20025;-80
2023/03/01 06:23:36;;;;;;;3.47;1.10;;;;;;;;;;5052931;28;20070;-81
2023/03/01 06:26:04;;;;;;;4.15;1.20;;;;;;;;;;5052304;28;20456;-80
2023/03/01 06:28:30;;;;;;;1.30;0.80;;;;;;;;;;5042142;28;20106;-79
2023/03/01 06:30:55;;;;;;;3.85;1.13;;;;;;;;;;5060713;28;20024;-80
2023/03/01 06:33:46;;;;;;;3.80;1.10;;;;;;;;;;5069313;28;20071;-81
2023/03/01 06:36:11;;;;;;;3.05;1.48;;;;;;;;;;5074857;28;20452;-80
2023/03/01 06:38:37;;;;;;;3.88;1.35;;;;;;;;;;5073436;28;20495;-80
2023/03/01 06:41:02;;;;;;;6.75;2.28;;;;;;;;;;5049495;28;20044;-83
2023/03/01 06:43:28;;;;;;;3.83;1.30;;;;;;;;;;5055151;28;20115;-82
2023/03/01 06:45:53;;;;;;;3.05;1.45;;;;;;;;;;5054845;28;20037;-81
2023/03/01 06:48:18;;;;;;;4.13;1.20;;;;;;;;;;5068195;28;20029;-80
2023/03/01 06:50:44;;;;;;;2.30;1.08;;;;;;;;;;5075398;28;20063;-82
2023/03/01 06:53:09;;;;;;;2.58;1.00;;;;;;;;;;5074101;28;20032;-81
2023/03/01 06:55:35;;;;;;;4.13;1.33;;;;;;;;;;5074417;28;20028;-81
2023/03/01 06:58:01;;;;;;;3.83;1.20;;;;;;;;;;5070697;28;20119;-81
2023/03/01 07:00:26;;;;;;;3.10;1.00;;;;;;;;;;5049421;28;20024;-81
2023/03/01 07:02:52;;;;;;;3.22;1.00;;;;;;;;;;5031406;28;20125;-81
2023/03/01 07:05:17;;;;;;;2.25;1.00;;;;;;;;;;5056000;28;20127;-80
2023/03/01 07:07:43;;;;;;;2.22;1.05;;;;;;;;;;5056899;28;20099;-81
2023/03/01 07:10:09;;;;;;;2.28;0.95;;;;;;;;;;5073187;28;20036;-80
2023/03/01 07:12:34;;;;;;;3.33;1.23;;;;;;;;;;5073660;28;20111;-80
2023/03/01 07:15:00;;;;;;;2.50;0.90;;;;;;;;;;5073024;28;20032;-82
2023/03/01 07:17:25;;;;;;;3.53;1.10;;;;;;;;;;5061782;28;20067;-81
2023/03/01 07:19:50;;;;;;;3.72;1.27;;;;;;;;;;5036194;28;20123;-81
2023/03/01 07:22:16;;;;;;;2.08;1.00;;;;;;;;;;5036441;28;20087;-81
2023/03/01 07:24:41;;;;;;;2.45;1.13;;;;;;;;;;5042629;28;20442;-81
2023/03/01 07:27:07;;;;;;;4.10;1.20;;;;;;;;;;5056255;28;20033;-81
2023/03/01 07:29:32;;;;;;;3.28;1.33;;;;;;;;;;5068742;28;20090;-80
2023/03/01 07:31:58;;;;;;;5.32;1.88;;;;;;;;;;5056029;28;20483;-81
2023/03/01 07:34:23;;;;;;;7.75;1.50;;;;;;;;;;5055577;28;20522;-79
2023/03/01 07:36:49;;;;;;;7.30;1.30;;;;;;;;;;5056136;28;20115;-80
2023/03/01 07:39:14;;;;;;;5.88;1.48;;;;;;;;;;5073133;28;20461;-80
2023/03/01 07:41:40;;;;;;;2.33;1.17;;;;;;;;;;5061454;28;20029;-81
2023/03/01 07:44:05;;;;;;;4.30;1.30;;;;;;;;;;5054766;28;20078;-80
2023/03/01 07:46:31;;;;;;;5.15;1.60;;;;;;;;;;5055321;28;20063;-79
2023/03/01 07:49:22;;;;;;;3.80;1.35;;;;;;;;;;5038714;28;20101;-81
2023/03/01 07:51:47;;;;;;;2.72;1.30;;;;;;;;;;5071372;28;20021;-81
2023/03/01 07:54:12;;;;;;;4.25;1.33;;;;;;;;;;5071645;28;20376;-81
2023/03/01 07:56:38;;;;;;;7.03;1.90;;;;;;;;;;5053654;28;20066;-81
2023/03/01 07:59:03;;;;;;;4.72;1.67;;;;;;;;;;5069643;28;20032;-81
2023/03/01 08:01:29;;;;;;;5.35;1.20;;;;;;;;;;5067109;28;20467;-81
2023/03/01 08:03:54;;;;;;;2.78;1.20;;;;;;;;;;5054798;28;20071;-81
2023/03/01 08:06:20;;;;;;;3.92;1.10;;;;;;;;;;5070947;28;20451;-81
2023/03/01 08:08:45;;;;;;;3.20;1.40;;;;;;;;;;5054385;28;20376;-81
2023/03/01 08:11:11;;;;;;;2.70;1.23;;;;;;;;;;5052723;28;20106;-81
2023/03/01 08:13:37;;;;;;;5.85;1.00;;;;;;;;;;5064474;28;20078;-80
2023/03/01 08:16:03;;;;;;;4.97;1.60;;;;;;;;;;5065171;28;20021;-81
2023/03/01 08:18:28;;;;;;;4.53;1.40;;;;;;;;;;5054147;28;20036;-81
2023/03/01 08:20:54;;;;;;;3.53;1.13;;;;;;;;;;5066667;28;20056;-80
2023/03/01 08:23:19;;;;;;;3.25;1.10;;;;;;;;;;5028070;28;20036;-80
2023/03/01 08:25:44;;;;;;;3.22;1.30;;;;;;;;;;5053473;28;20036;-80
2023/03/01 08:28:10;;;;;;;3.65;1.20;;;;;;;;;;5062022;28;20040;-80
2023/03/01 08:30:35;;;;;;;2.30;0.82;;;;;;;;;;5059347;28;20032;-80
2023/03/01 08:33:01;;;;;;;5.45;1.50;;;;;;;;;;5043584;28;20072;-81
2023/03/01 08:35:26;;;;;;;3.00;1.00;;;;;;;;;;5051325;28;20036;-81
2023/03/01 08:37:51;;;;;;;3.00;1.00;;;;;;;;;;5043443;28;20024;-81
2023/03/01 08:40:17;;;;;;;5.43;1.17;;;;;;;;;;5055061;28;20328;-81
2023/03/01 08:42:42;;;;;;;3.97;1.27;;;;;;;;;;5038236;28;20036;-80
2023/03/01 08:45:08;;;;;;;5.55;1.45;;;;;;;;;;5047159;28;20093;-82
2023/03/01 08:47:34;;;;;;;3.92;1.55;;;;;;;;;;5054042;28;20041;-80
2023/03/01 08:50:00;;;;;;;3.88;1.17;;;;;;;;;;5052817;28;20055;-80
2023/03/01 08:52:25;;;;;;;2.42;1.05;;;;;;;;;;5062888;28;20029;-80
2023/03/01 08:54:51;;;;;;;2.22;1.17;;;;;;;;;;5034691;28;20040;-80
2023/03/01 08:57:16;;;;;;;3.35;1.30;;;;;;;;;;5035467;28;20410;-80
2023/03/01 08:59:42;;;;;;;4.38;1.10;;;;;;;;;;5052213;28;20047;-80
2023/03/01 09:02:12;;;;;;;4.50;1.40;;;;;;;;;;5052250;28;20073;-81
2023/03/01 09:04:37;;;;;;;2.88;0.98;;;;;;;;;;5033440;28;20479;-82
2023/03/01 09:07:03;;;;;;;3.72;1.15;;;;;;;;;;5034752;28;20029;-82
2023/03/01 09:09:28;;;;;;;3.22;1.17;;;;;;;;;;5051617;28;20087;-81
2023/03/01 09:11:54;;;;;;;4.10;1.23;;;;;;;;;;5034477;28;20032;-81
2023/03/01 09:14:19;;;;;;;4.95;1.15;;;;;;;;;;5052435;28;20024;-81
2023/03/01 09:16:44;;;;;;;3.85;1.15;;;;;;;;;;5034655;28;20460;-80
2023/03/01 09:19:11;;;;;;;4.35;1.25;;;;;;;;;;5052156;28;20041;-80
2023/03/01 09:21:36;;;;;;;2.42;0.90;;;;;;;;;;5052084;28;20029;-82
2023/03/01 09:24:02;;;;;;;5.03;1.20;;;;;;;;;;5017744;28;20124;-81
2023/03/01 09:26:28;;;;;;;2.90;1.10;;;;;;;;;;5053140;28;20100;-81
2023/03/01 09:28:53;;;;;;;4.35;1.50;;;;;;;;;;5034515;28;20041;-81
2023/03/01 09:31:19;;;;;;;3.65;1.30;;;;;;;;;;5051934;28;20376;-81
2023/03/01 09:34:03;;;;;;;3.58;1.10;;;;;;;;;;5036963;28;20474;-81
2023/03/01 09:36:29;;;;;;;3.00;1.10;;;;;;;;;;5052096;28;20032;-82
2023/03/01 09:38:54;;;;;;;3.60;1.15;;;;;;;;;;5052174;28;20768;-82
2023/03/01 09:41:23;;;;;;;4.75;1.10;;;;;;;;;;5052217;28;20048;-81
2023/03/01 09:44:09;;;;;;;2.05;0.73;;;;;;;;;;5052228;28;20075;-80
2023/03/01 09:46:37;;;;;;;2.97;0.70;;;;;;;;;;5033624;28;20040;-80
2023/03/01 09:49:03;;;;;;;3.63;1.17;;;;;;;;;;5034249;28;20495;-81
2023/03/01 09:51:30;;;;;;;2.33;0.90;;;;;;;;;;5051946;28;20040;-81
2023/03/01 09:53:56;;;;;;;4.68;1.17;;;;;;;;;;5041883;28;20055;-81
2023/03/01 09:56:41;;;;;;;2.60;1.10;;;;;;;;;;5071292;28;20403;-82
2023/03/01 09:59:06;;;;;;;4.53;1.30;;;;;;;;;;5044112;28;20036;-81
2023/03/01 10:01:36;;;;;;;1.80;0.95;;;;;;;;;;5037201;28;20506;-81
2023/03/01 10:04:02;;;;;;;3.55;1.17;;;;;;;;;;5034222;28;20041;-80
2023/03/01 10:06:27;;;;;;;3.53;1.35;;;;;;;;;;5064516;28;20036;-80
2023/03/01 10:08:56;;;;;;;2.85;1.25;;;;;;;;;;5034305;28;20144;-82
2023/03/01 10:11:22;;;;;;;2.10;0.90;;;;;;;;;;5034554;28;20025;-80
2023/03/01 10:13:54;;;;;;;1.85;0.90;;;;;;;;;;5034846;28;20036;-81
2023/03/01 10:16:26;;;;;;;2.85;0.88;;;;;;;;;;5065204;28;20071;-80
2023/03/01 10:18:53;;;;;;;2.65;0.90;;;;;;;;;;5045479;28;20491;-79
2023/03/01 10:21:19;;;;;;;3.03;1.45;;;;;;;;;;5019100;28;20027;-80
2023/03/01 10:23:44;;;;;;;6.05;1.00;;;;;;;;;;5051381;28;20055;-80
2023/03/01 10:26:19;;;;;;;4.07;1.35;;;;;;;;;;5034188;28;20025;-82
2023/03/01 10:28:45;;;;;;;3.25;0.80;;;;;;;;;;5033860;28;20040;-82
2023/03/01 10:31:14;;;;;;;2.97;1.30;;;;;;;;;;5051198;28;20025;-81
2023/03/01 10:33:40;;;;;;;4.07;1.35;;;;;;;;;;5059770;28;20033;-81
2023/03/01 10:36:05;;;;;;;3.30;1.02;;;;;;;;;;5053381;28;20055;-80
2023/03/01 10:38:31;;;;;;;3.42;1.00;;;;;;;;;;5053104;28;20403;-80
2023/03/01 10:40:58;;;;;;;1.88;1.00;;;;;;;;;;5033633;28;20179;-82
2023/03/01 10:43:28;;;;;;;4.60;1.60;;;;;;;;;;5033938;28;20041;-81
2023/03/01 10:45:53;;;;;;;4.90;1.13;;;;;;;;;;5064314;28;20348;-81
2023/03/01 10:48:43;;;;;;;3.55;1.20;;;;;;;;;;5068323;28;20172;-80
2023/03/01 10:51:12;;;;;;;3.75;1.08;;;;;;;;;;5052642;28;20074;-81
2023/03/01 10:53:40;;;;;;;3.88;1.30;;;;;;;;;;5031200;28;20037;-81
2023/03/01 10:56:05;;;;;;;2.80;1.10;;;;;;;;;;5020392;28;20056;-81
2023/03/01 10:58:31;;;;;;;3.80;1.00;;;;;;;;;;5050988;28;20504;-81
2023/03/01 11:00:58;;;;;;;4.50;1.52;;;;;;;;;;5048146;28;20118;-82
2023/03/01 11:03:24;;;;;;;2.70;1.10;;;;;;;;;;5040478;28;20503;-81
2023/03/01 11:05:51;;;;;;;5.20;1.30;;;;;;;;;;5050298;28;20551;-83
2023/03/01 11:08:25;;;;;;;3.55;1.02;;;;;;;;;;5032728;28;20033;-81
2023/03/01 11:10:51;;;;;;;3.20;1.27;;;;;;;;;;5026156;28;20029;-82
2023/03/01 11:13:17;;;;;;;5.30;1.30;;;;;;;;;;5049738;28;20025;-82
2023/03/01 11:15:42;;;;;;;3.42;1.17;;;;;;;;;;5034144;28;20048;-81
2023/03/01 11:18:21;;;;;;;4.40;2.08;;;;;;;;;;5037692;28;20025;-81
2023/03/01 11:20:46;;;;;;;3.05;1.40;;;;;;;;;;5054660;28;20052;-77
2023/03/01 11:23:12;;;;;;;3.60;1.40;;;;;;;;;;5053707;28;20795;-77
2023/03/01 11:25:48;;;;;;;3.17;1.30;;;;;;;;;;5053665;28;20040;-76
2023/03/01 11:28:14;;;;;;;3.80;1.42;;;;;;;;;;5045201;28;20029;-76
2023/03/01 11:30:46;;;;;;;4.10;1.00;;;;;;;;;;5053133;28;20479;-80
2023/03/01 11:33:36;;;;;;;2.45;1.55;;;;;;;;;;5054087;28;20040;-76
2023/03/01 11:36:04;;;;;;;2.85;1.13;;;;;;;;;;5053512;28;20033;-76
2023/03/01 11:38:30;;;;;;;3.78;1.23;;;;;;;;;;5053048;28;20045;-77
2023/03/01 11:40:59;;;;;;;3.03;1.17;;;;;;;;;;5036127;28;20063;-77
2023/03/01 11:43:30;;;;;;;4.05;1.50;;;;;;;;;;5052741;28;20040;-77
2023/03/01 11:46:11;;;;;;;3.75;1.50;;;;;;;;;;5054955;28;20036;-79
2023/03/01 11:48:58;;;;;;;3.70;0.90;;;;;;;;;;5009024;28;20089;-80
2023/03/01 11:51:25;;;;;;;3.45;1.10;;;;;;;;;;5032240;28;20075;-80
2023/03/01 11:53:51;;;;;;;4.65;1.20;;;;;;;;;;5017868;28;20080;-80
2023/03/01 11:56:19;;;;;;;4.45;1.50;;;;;;;;;;5049369;28;20421;-79
2023/03/01 11:59:03;;;;;;;3.35;1.30;;;;;;;;;;5037903;28;20120;-80
2023/03/01 12:01:35;;;;;;;3.10;1.20;;;;;;;;;;5055085;28;20029;-80
2023/03/01 12:04:20;;;;;;;3.10;0.98;;;;;;;;;;5055066;28;20041;-80
2023/03/01 12:07:01;;;;;;;1.67;0.90;;;;;;;;;;5053893;28;20033;-80
2023/03/01 12:09:39;;;;;;;4.65;1.02;;;;;;;;;;5054305;28;20132;-80
2023/03/01 12:12:23;;;;;;;3.05;1.10;;;;;;;;;;5043840;28;20041;-79
2023/03/01 12:15:07;;;;;;;4.25;1.20;;;;;;;;;;5050510;28;20033;-79
2023/03/01 12:17:48;;;;;;;4.35;1.60;;;;;;;;;;5054264;28;20033;-80
2023/03/01 12:20:34;;;;;;;3.17;1.10;;;;;;;;;;5054709;28;20607;-78
2023/03/01 12:23:02;;;;;;;4.45;1.45;;;;;;;;;;5051888;28;20068;-80
2023/03/01 12:25:31;;;;;;;3.28;1.40;;;;;;;;;;5054835;28;20028;-80
2023/03/01 12:27:56;;;;;;;2.15;0.90;;;;;;;;;;5029201;28;20500;-79
2023/03/01 12:30:40;;;;;;;3.30;1.17;;;;;;;;;;5048094;28;20033;-80
2023/03/01 12:33:38;;;;;;;1.83;0.70;;;;;;;;;;5051703;28;20522;-81
2023/03/01 12:36:22;;;;;;;2.13;1.02;;;;;;;;;;5050538;28;20075;-81
2023/03/01 12:38:50;;;;;;;3.67;1.15;;;;;;;;;;5054544;28;20143;-80
2023/03/01 12:41:18;;;;;;;4.95;1.20;;;;;;;;;;5054348;28;20028;-80
2023/03/01 12:43:56;;;;;;;3.10;1.02;;;;;;;;;;5054271;28;20045;-80
2023/03/01 12:46:41;;;;;;;2.25;1.00;;;;;;;;;;5054264;28;20087;-79
2023/03/01 12:49:10;;;;;;;3.00;1.08;;;;;;;;;;5053200;28;20110;-80
2023/03/01 12:51:35;;;;;;;3.15;0.93;;;;;;;;;;5053849;28;20033;-80
2023/03/01 12:54:05;;;;;;;2.22;1.17;;;;;;;;;;5061756;28;20056;-80
2023/03/01 12:56:31;;;;;;;4.22;1.17;;;;;;;;;;5019378;28;20090;-80
2023/03/01 12:59:09;;;;;;;3.47;1.20;;;;;;;;;;5055433;28;20048;-80
2023/03/01 13:01:52;;;;;;;2.92;0.95;;;;;;;;;;5053754;28;20025;-80
2023/03/01 13:04:36;;;;;;;2.05;0.90;;;;;;;;;;5073145;28;20040;-80
2023/03/01 13:07:11;;;;;;;2.90;1.00;;;;;;;;;;5055697;28;20037;-79
2023/03/01 13:09:36;;;;;;;2.63;0.95;;;;;;;;;;5037688;28;20113;-79
2023/03/01 13:12:02;;;;;;;2.20;1.10;;;;;;;;;;5073296;28;20028;-79
2023/03/01 13:14:30;;;;;;;2.95;1.10;;;;;;;;;;5054302;28;20074;-80
2023/03/01 13:16:56;;;;;;;2.85;1.00;;;;;;;;;;5046838;28;20415;-80
2023/03/01 13:19:22;;;;;;;4.97;1.33;;;;;;;;;;5036187;28;20043;-79
2023/03/01 13:21:48;;;;;;;1.48;0.80;;;;;;;;;;5054135;28;20498;-79
2023/03/01 13:24:43;;;;;;;3.70;1.30;;;;;;;;;;5003870;28;20050;-80
2023/03/01 13:27:15;;;;;;;2.50;0.90;;;;;;;;;;5015753;28;20110;-80
2023/03/01 13:29:44;;;;;;;3.47;1.30;;;;;;;;;;5024199;28;20025;-79
2023/03/01 13:32:28;;;;;;;2.55;1.05;;;;;;;;;;5036813;28;20036;-80
2023/03/01 13:34:55;;;;;;;2.75;1.30;;;;;;;;;;5051461;28;20385;-77
2023/03/01 13:37:22;;;;;;;2.60;1.00;;;;;;;;;;5034251;28;20021;-77
2023/03/01 13:39:48;;;;;;;2.55;1.10;;;;;;;;;;5033501;28;20028;-77
2023/03/01 13:42:33;;;;;;;3.00;1.38;;;;;;;;;;5033483;28;20044;-77
2023/03/01 13:44:58;;;;;;;2.33;1.15;;;;;;;;;;5051198;28;20586;-77
2023/03/01 13:47:24;;;;;;;2.70;1.20;;;;;;;;;;5040327;28;20028;-77
2023/03/01 13:49:59;;;;;;;2.67;1.20;;;;;;;;;;5043577;28;20478;-77
2023/03/01 13:52:34;;;;;;;3.20;1.60;;;;;;;;;;5032995;28;20021;-77
2023/03/01 13:55:01;;;;;;;3.42;1.40;;;;;;;;;;5050415;28;20049;-77
2023/03/01 13:57:29;;;;;;;3.03;1.27;;;;;;;;;;5033332;28;20029;-77
2023/03/01 13:59:55;;;;;;;2.90;1.10;;;;;;;;;;5050578;28;20094;-76
2023/03/01 14:02:20;;;;;;;3.17;1.30;;;;;;;;;;5033002;28;20456;-77
2023/03/01 14:04:45;;;;;;;;;;;;;;;;;;5050544;28;20037;-77
2023/03/01 14:07:20;;;;;;;2.88;1.15;;;;;;;;;;5050830;28;19908;-78
2023/03/01 14:09:47;;;;;;;2.78;0.98;;;;;;;;;;5050416;28;20041;-77
2023/03/01 14:12:27;;;;;;;2.80;1.27;;;;;;;;;;5050860;28;20104;-76
2023/03/01 14:14:57;;;;;;;2.38;1.10;;;;;;;;;;5048567;28;20040;-76
2023/03/01 14:17:35;;;;;;;3.53;1.40;;;;;;;;;;5049157;28;20048;-77
2023/03/01 14:20:04;;;;;;;2.03;0.98;;;;;;;;;;5038511;28;20444;-76
2023/03/01 14:22:33;;;;;;;2.08;0.95;;;;;;;;;;5032566;28;20036;-76
2023/03/01 14:24:59;;;;;;;2.60;1.00;;;;;;;;;;5031530;28;20052;-77
2023/03/01 14:27:25;;;;;;;1.80;1.00;;;;;;;;;;5050867;28;20032;-77
2023/03/01 14:29:55;;;;;;;2.42;1.13;;;;;;;;;;5016127;28;20059;-78
2023/03/01 14:32:21;;;;;;;4.38;1.15;;;;;;;;;;5050016;28;20025;-77
2023/03/01 14:34:47;;;;;;;3.00;0.95;;;;;;;;;;5032413;28;20037;-76
2023/03/01 14:37:20;;;;;;;2.90;1.40;;;;;;;;;;5032093;28;20090;-78
2023/03/01 14:39:46;;;;;;;4.85;1.25;;;;;;;;;;5050436;28;20037;-76
2023/03/01 14:42:12;;;;;;;2.83;1.30;;;;;;;;;;5032041;28;20021;-76
2023/03/01 14:44:37;;;;;;;3.05;1.30;;;;;;;;;;5050241;28;20064;-77
2023/03/01 14:47:03;;;;;;;2.72;1.15;;;;;;;;;;5032595;28;20280;-77
2023/03/01 14:49:29;;;;;;;5.07;1.50;;;;;;;;;;5032865;28;20037;-76
2023/03/01 14:52:01;;;;;;;3.30;1.50;;;;;;;;;;5034796;28;20024;-77